createdAt,value
2022-08-05T00:01:36.032Z,61.30
2022-08-05T00:04:18.943Z,61.30
2022-08-05T00:06:46.956Z,61.30
2022-08-05T00:09:15.947Z,61.40
2022-08-05T00:11:49.169Z,61.60
2022-08-05T00:14:27.540Z,62.00
2022-08-05T00:16:56.988Z,61.80
2022-08-05T00:19:33.726Z,62.00
2022-08-05T00:22:08.006Z,62.10
2022-08-05T00:24:38.619Z,62.20
2022-08-05T00:27:10.486Z,62.20
2022-08-05T00:29:41.156Z,62.20
2022-08-05T00:32:15.468Z,62.40
2022-08-05T00:35:05.230Z,62.40
2022-08-05T00:37:35.447Z,62.50
2022-08-05T00:40:27.423Z,62.50
2022-08-05T00:42:57.086Z,62.70
2022-08-05T00:45:28.272Z,62.70
2022-08-05T00:48:14.772Z,63.60
2022-08-05T00:50:45.891Z,63.00
2022-08-05T00:54:00.253Z,63.00
2022-08-05T00:56:04.303Z,63.10
2022-08-05T00:58:31.318Z,63.10
2022-08-05T01:00:58.322Z,63.20
2022-08-05T01:03:31.047Z,63.00
2022-08-05T01:06:01.729Z,62.80
2022-08-05T01:08:43.130Z,62.50
2022-08-05T01:11:22.248Z,62.00
2022-08-05T01:14:17.999Z,62.00
2022-08-05T01:17:03.213Z,61.80
2022-08-05T01:20:01.722Z,62.30
2022-08-05T01:22:57.414Z,62.40
2022-08-05T01:25:40.841Z,62.30
2022-08-05T01:28:27.348Z,62.60
2022-08-05T01:31:30.864Z,62.50
2022-08-05T01:34:05.000Z,62.50
2022-08-05T01:36:50.896Z,62.60
2022-08-05T01:39:36.138Z,62.70
2022-08-05T01:42:09.746Z,62.80
2022-08-05T01:44:37.923Z,62.90
2022-08-05T01:47:05.479Z,62.70
2022-08-05T01:50:01.475Z,62.80
2022-08-05T01:52:25.442Z,62.70
2022-08-05T01:54:56.904Z,62.50
2022-08-05T01:58:13.648Z,62.40
2022-08-05T02:00:19.341Z,62.30
2022-08-05T02:02:56.321Z,62.50
2022-08-05T02:05:28.988Z,62.70
2022-08-05T02:08:01.125Z,62.70
2022-08-05T02:10:34.849Z,62.80
2022-08-05T02:13:27.914Z,62.90
2022-08-05T02:16:16.505Z,62.70
2022-08-05T02:18:50.323Z,63.00
2022-08-05T02:21:21.857Z,63.00
2022-08-05T02:23:53.457Z,63.00
2022-08-05T02:26:26.531Z,63.00
2022-08-05T02:28:56.054Z,63.00
2022-08-05T02:31:29.334Z,63.10
2022-08-05T02:34:09.875Z,63.00
2022-08-05T02:36:42.600Z,63.00
2022-08-05T02:39:10.920Z,63.00
2022-08-05T02:41:57.797Z,63.00
2022-08-05T02:44:28.376Z,63.00
2022-08-05T02:47:00.443Z,62.90
2022-08-05T02:49:36.460Z,62.90
2022-08-05T02:52:07.651Z,62.50
2022-08-05T02:54:37.185Z,62.60
2022-08-05T02:58:11.318Z,62.50
2022-08-05T02:59:57.634Z,62.60
2022-08-05T03:02:40.491Z,62.80
2022-08-05T03:05:11.751Z,62.80
2022-08-05T03:08:00.821Z,62.40
2022-08-05T03:10:27.627Z,62.30
2022-08-05T03:12:54.567Z,62.10
2022-08-05T03:15:23.661Z,61.70
2022-08-05T03:17:53.893Z,61.60
2022-08-05T03:20:22.416Z,61.80
2022-08-05T03:22:51.415Z,61.70
2022-08-05T03:25:33.393Z,61.40
2022-08-05T03:28:09.035Z,61.50
2022-08-05T03:30:38.225Z,61.40
2022-08-05T03:33:07.477Z,61.30
2022-08-05T03:35:40.995Z,61.50
2022-08-05T03:38:10.722Z,61.50
2022-08-05T03:40:45.239Z,61.20
2022-08-05T03:43:58.434Z,61.20
2022-08-05T03:46:02.619Z,61.20
2022-08-05T03:48:30.430Z,61.60
2022-08-05T03:52:48.554Z,61.30
2022-08-05T03:55:53.009Z,61.20
2022-08-05T03:57:41.270Z,61.00
2022-08-05T04:00:12.518Z,60.60
2022-08-05T04:02:58.036Z,60.60
2022-08-05T04:05:33.821Z,60.80
2022-08-05T04:08:14.343Z,61.10
2022-08-05T04:11:01.330Z,60.70
2022-08-05T04:13:49.746Z,60.50
2022-08-05T04:16:25.177Z,60.80
2022-08-05T04:19:00.215Z,60.60
2022-08-05T04:22:09.008Z,60.60
2022-08-05T04:24:19.311Z,60.50
2022-08-05T04:26:49.892Z,60.50
2022-08-05T04:29:17.059Z,60.40
2022-08-05T04:31:43.975Z,60.30
2022-08-05T04:34:31.997Z,60.20
2022-08-05T04:37:00.221Z,60.30
2022-08-05T04:39:27.971Z,60.70
2022-08-05T04:41:55.423Z,60.20
2022-08-05T04:44:29.291Z,60.20
2022-08-05T04:47:09.932Z,60.20
2022-08-05T04:50:03.003Z,60.40
2022-08-05T04:52:27.467Z,60.30
2022-08-05T04:54:57.414Z,60.00
2022-08-05T04:57:28.585Z,59.90
2022-08-05T04:59:58.797Z,60.70
2022-08-05T05:02:37.566Z,60.10
2022-08-05T05:05:26.363Z,60.20
2022-08-05T05:08:01.693Z,60.00
2022-08-05T05:10:33.844Z,59.80
2022-08-05T05:13:04.318Z,59.70
2022-08-05T05:15:57.608Z,59.90
2022-08-05T05:18:28.494Z,60.10
2022-08-05T05:21:00.962Z,60.00
2022-08-05T05:23:38.844Z,60.00
2022-08-05T05:26:14.884Z,60.10
2022-08-05T05:28:42.819Z,60.20
2022-08-05T05:31:12.559Z,60.10
2022-08-05T05:33:58.681Z,59.90
2022-08-05T05:36:28.648Z,59.80
2022-08-05T05:38:57.391Z,59.90
2022-08-05T05:41:24.553Z,59.70
2022-08-05T05:43:58.300Z,60.50
2022-08-05T05:46:27.578Z,59.70
2022-08-05T05:48:54.405Z,59.80
2022-08-05T05:51:23.377Z,60.00
2022-08-05T05:53:57.446Z,59.90
2022-08-05T05:56:33.004Z,60.40
2022-08-05T05:59:08.128Z,59.70
2022-08-05T06:01:38.219Z,59.30
2022-08-05T06:04:11.346Z,59.70
2022-08-05T06:06:47.774Z,59.60
2022-08-05T06:09:26.503Z,59.70
2022-08-05T06:12:04.158Z,59.60
2022-08-05T06:14:31.866Z,59.50
2022-08-05T06:17:02.108Z,59.70
2022-08-05T06:19:57.162Z,59.90
2022-08-05T06:22:34.754Z,60.10
2022-08-05T06:25:24.390Z,61.10
2022-08-05T06:28:11.033Z,61.00
2022-08-05T06:30:37.413Z,60.50
2022-08-05T06:33:04.387Z,60.10
2022-08-05T06:36:06.816Z,60.20
2022-08-05T06:38:18.242Z,60.00
2022-08-05T06:41:04.501Z,59.80
2022-08-05T06:43:57.439Z,59.70
2022-08-05T06:46:18.667Z,59.60
2022-08-05T06:48:55.823Z,59.40
2022-08-05T06:51:29.892Z,59.50
2022-08-05T06:54:02.700Z,59.70
2022-08-05T06:56:34.255Z,59.70
2022-08-05T06:59:02.281Z,59.40
2022-08-05T07:01:32.284Z,59.30
2022-08-05T07:04:02.469Z,59.20
2022-08-05T07:06:30.439Z,59.40
2022-08-05T07:08:59.271Z,59.30
2022-08-05T07:11:28.669Z,59.30
2022-08-05T07:14:15.588Z,59.20
2022-08-05T07:18:02.424Z,59.00
2022-08-05T07:20:16.664Z,58.80
2022-08-05T07:22:28.518Z,58.70
2022-08-05T07:25:23.831Z,59.40
2022-08-05T07:27:57.276Z,58.70
2022-08-05T07:30:32.799Z,58.80
2022-08-05T07:33:05.450Z,58.80
2022-08-05T07:36:01.625Z,58.90
2022-08-05T07:38:33.022Z,59.00
2022-08-05T07:42:06.976Z,59.00
2022-08-05T07:43:58.262Z,58.90
2022-08-05T07:46:31.201Z,59.00
2022-08-05T07:49:01.835Z,59.10
2022-08-05T07:51:40.984Z,59.70
2022-08-05T07:54:23.342Z,58.90
2022-08-05T07:57:02.477Z,58.70
2022-08-05T07:59:41.413Z,58.70
2022-08-05T08:02:15.706Z,58.70
2022-08-05T08:04:48.343Z,58.50
2022-08-05T08:07:16.473Z,58.60
2022-08-05T08:09:45.837Z,58.50
2022-08-05T08:12:35.083Z,58.50
2022-08-05T08:15:04.232Z,58.60
2022-08-05T08:17:32.369Z,58.40
2022-08-05T08:20:21.381Z,58.40
2022-08-05T08:22:57.550Z,58.30
2022-08-05T08:25:26.952Z,58.20
2022-08-05T08:28:18.862Z,58.20
2022-08-05T08:30:58.738Z,58.10
2022-08-05T08:33:25.598Z,57.90
2022-08-05T08:36:18.530Z,57.90
2022-08-05T08:38:41.819Z,57.90
2022-08-05T08:41:14.072Z,57.50
2022-08-05T08:45:24.352Z,57.40
2022-08-05T08:46:32.236Z,57.40
2022-08-05T08:49:17.403Z,57.40
2022-08-05T08:52:05.698Z,57.50
2022-08-05T08:54:42.233Z,57.00
2022-08-05T08:57:11.581Z,57.00
2022-08-05T08:59:41.825Z,57.10
2022-08-05T09:02:14.821Z,57.50
2022-08-05T09:04:58.513Z,57.70
2022-08-05T09:07:39.795Z,57.50
2022-08-05T09:10:21.564Z,57.60
2022-08-05T09:12:55.098Z,57.10
2022-08-05T09:15:23.413Z,57.00
2022-08-05T09:17:52.882Z,56.80
2022-08-05T09:20:36.607Z,56.80
2022-08-05T09:23:19.721Z,57.00
2022-08-05T09:26:03.368Z,57.20
2022-08-05T09:28:34.716Z,56.80
2022-08-05T09:31:44.110Z,56.60
2022-08-05T09:34:10.444Z,57.00
2022-08-05T09:36:55.350Z,56.60
2022-08-05T09:39:39.369Z,56.70
2022-08-05T09:42:17.377Z,56.80
2022-08-05T09:44:52.876Z,56.50
2022-08-05T09:47:28.632Z,56.40
2022-08-05T09:50:05.458Z,56.70
2022-08-05T09:52:36.459Z,56.60
2022-08-05T09:55:56.449Z,56.20
2022-08-05T09:58:00.163Z,56.00
2022-08-05T10:00:30.441Z,55.90
2022-08-05T10:02:59.021Z,55.90
2022-08-05T10:05:28.464Z,55.30
2022-08-05T10:08:35.972Z,54.90
2022-08-05T10:10:53.891Z,54.60
2022-08-05T10:13:45.853Z,55.00
2022-08-05T10:16:30.523Z,55.00
2022-08-05T10:18:59.785Z,55.00
2022-08-05T10:21:27.859Z,55.30
2022-08-05T10:24:07.540Z,55.40
2022-08-05T10:26:37.641Z,55.40
2022-08-05T10:29:23.328Z,54.90
2022-08-05T10:32:52.386Z,54.70
2022-08-05T10:34:40.710Z,55.50
2022-08-05T10:37:08.424Z,54.50
2022-08-05T10:40:03.749Z,53.60
2022-08-05T10:42:34.200Z,54.20
2022-08-05T10:45:09.596Z,54.00
2022-08-05T10:48:30.084Z,54.30
2022-08-05T10:51:22.062Z,53.80
2022-08-05T10:54:01.980Z,53.40
2022-08-05T10:56:45.511Z,53.20
2022-08-05T11:00:01.819Z,53.40
2022-08-05T11:02:14.124Z,53.90
2022-08-05T11:04:55.782Z,54.20
2022-08-05T11:07:32.755Z,54.80
2022-08-05T11:10:22.806Z,54.60
2022-08-05T11:12:56.201Z,54.60
2022-08-05T11:16:01.279Z,55.00
2022-08-05T11:18:27.286Z,55.00
2022-08-05T11:20:57.369Z,55.00
2022-08-05T11:24:05.436Z,55.10
2022-08-05T11:26:32.577Z,55.10
2022-08-05T11:29:11.514Z,55.10
2022-08-05T11:31:57.500Z,55.10
2022-08-05T11:34:51.826Z,54.70
2022-08-05T11:38:29.105Z,54.40
2022-08-05T11:41:12.860Z,54.50
2022-08-05T11:44:05.192Z,54.20
2022-08-05T11:46:35.351Z,54.50
2022-08-05T11:49:04.454Z,54.90
2022-08-05T11:51:44.596Z,54.80
2022-08-05T11:54:33.971Z,54.60
2022-08-05T11:57:08.178Z,55.00
2022-08-05T11:59:51.187Z,55.20
2022-08-05T12:02:24.475Z,55.30
2022-08-05T12:04:59.330Z,55.30
2022-08-05T12:08:07.430Z,55.20
2022-08-05T12:10:22.927Z,55.20
2022-08-05T12:12:59.339Z,54.70
2022-08-05T12:15:38.420Z,53.80
2022-08-05T12:18:10.550Z,54.40
2022-08-05T12:20:38.830Z,54.90
2022-08-05T12:23:12.341Z,55.00
2022-08-05T12:25:56.715Z,53.00
2022-08-05T12:28:38.177Z,53.90
2022-08-05T12:31:05.698Z,54.10
2022-08-05T12:33:36.467Z,54.20
2022-08-05T12:36:08.639Z,53.10
2022-08-05T12:38:40.246Z,54.10
2022-08-05T12:41:16.133Z,54.10
2022-08-05T12:43:57.982Z,53.80
2022-08-05T12:46:31.435Z,53.30
2022-08-05T12:49:00.975Z,53.30
2022-08-05T12:52:13.675Z,53.70
2022-08-05T12:54:32.785Z,53.90
2022-08-05T12:57:02.574Z,53.80
2022-08-05T13:00:08.265Z,54.10
2022-08-05T13:02:27.451Z,53.70
2022-08-05T13:04:57.565Z,53.20
2022-08-05T13:07:57.638Z,51.70
2022-08-05T13:10:20.290Z,51.70
2022-08-05T13:12:51.333Z,52.10
2022-08-05T13:15:36.024Z,52.30
2022-08-05T13:18:19.597Z,52.30
2022-08-05T13:20:50.075Z,52.80
2022-08-05T13:23:22.235Z,52.40
2022-08-05T13:25:59.539Z,51.80
2022-08-05T13:28:28.810Z,53.10
2022-08-05T13:30:55.814Z,53.40
2022-08-05T13:34:24.055Z,53.00
2022-08-05T13:36:14.361Z,53.30
2022-08-05T13:38:42.710Z,53.40
2022-08-05T13:41:11.491Z,53.70
2022-08-05T13:43:44.271Z,53.10
2022-08-05T13:46:13.220Z,50.80
2022-08-05T13:48:57.498Z,51.70
2022-08-05T13:51:40.020Z,51.20
2022-08-05T13:54:12.549Z,50.10
2022-08-05T13:56:45.457Z,50.10
2022-08-05T13:59:24.603Z,50.10
2022-08-05T14:01:56.496Z,50.80
2022-08-05T14:04:49.996Z,50.80
2022-08-05T14:08:00.907Z,50.90
2022-08-05T14:10:30.794Z,51.50
2022-08-05T14:12:58.820Z,52.10
2022-08-05T14:16:07.118Z,52.20
2022-08-05T14:18:18.159Z,51.70
2022-08-05T14:20:54.781Z,50.80
2022-08-05T14:23:25.068Z,51.80
2022-08-05T14:25:58.795Z,51.00
2022-08-05T14:28:28.700Z,51.50
2022-08-05T14:31:00.511Z,51.70
2022-08-05T14:33:56.610Z,51.30
2022-08-05T14:36:14.890Z,51.00
2022-08-05T14:38:42.045Z,51.80
2022-08-05T14:41:08.910Z,51.80
2022-08-05T14:43:59.372Z,51.50
2022-08-05T14:46:28.284Z,51.80
2022-08-05T14:48:58.540Z,52.40
2022-08-05T14:51:30.750Z,52.30
2022-08-05T14:54:26.435Z,51.40
2022-08-05T14:56:46.954Z,51.50
2022-08-05T14:59:15.267Z,50.50
2022-08-05T15:01:48.238Z,51.10
2022-08-05T15:04:17.503Z,50.90
2022-08-05T15:06:49.228Z,51.00
2022-08-05T15:09:50.569Z,51.10
2022-08-05T15:12:09.012Z,50.30
2022-08-05T15:14:48.387Z,51.00
2022-08-05T15:17:46.123Z,50.10
2022-08-05T15:20:19.023Z,48.70
2022-08-05T15:22:52.257Z,48.60
2022-08-05T15:25:41.157Z,47.10
2022-08-05T15:28:13.181Z,49.10
2022-08-05T15:30:43.465Z,48.00
2022-08-05T15:33:10.696Z,50.00
2022-08-05T15:35:45.256Z,50.30
2022-08-05T15:38:34.388Z,50.10
2022-08-05T15:41:21.112Z,50.30
2022-08-05T15:43:47.523Z,49.30
2022-08-05T15:46:14.601Z,47.60
2022-08-05T15:48:58.897Z,48.80
2022-08-05T15:52:09.722Z,47.20
2022-08-05T15:54:17.073Z,47.50
2022-08-05T15:56:43.987Z,47.40
2022-08-05T15:59:20.243Z,47.60
2022-08-05T16:01:52.815Z,47.20
2022-08-05T16:04:25.673Z,46.80
2022-08-05T16:06:56.254Z,47.00
2022-08-05T16:09:24.734Z,47.80
2022-08-05T16:11:53.174Z,46.90
2022-08-05T16:14:22.415Z,47.90
2022-08-05T16:16:49.972Z,47.50
2022-08-05T16:19:18.860Z,47.90
2022-08-05T16:21:58.928Z,47.40
2022-08-05T16:24:41.626Z,48.40
2022-08-05T16:27:16.234Z,48.30
2022-08-05T16:29:47.473Z,48.20
2022-08-05T16:32:23.382Z,48.00
2022-08-05T16:34:57.098Z,48.50
2022-08-05T16:38:15.709Z,49.30
2022-08-05T16:40:25.080Z,48.80
2022-08-05T16:42:56.254Z,49.20
2022-08-05T16:46:03.673Z,48.70
2022-08-05T16:48:10.501Z,49.30
2022-08-05T16:50:37.535Z,50.60
2022-08-05T16:53:12.673Z,51.00
2022-08-05T16:55:50.582Z,50.80
2022-08-05T16:58:19.639Z,51.10
2022-08-05T17:00:48.145Z,49.50
2022-08-05T17:03:19.826Z,50.80
2022-08-05T17:05:53.593Z,50.40
2022-08-05T17:08:35.806Z,51.10
2022-08-05T17:11:12.520Z,50.90
2022-08-05T17:13:43.950Z,51.30
2022-08-05T17:16:37.103Z,49.20
2022-08-05T17:18:57.913Z,51.00
2022-08-05T17:21:24.805Z,52.00
2022-08-05T17:24:05.142Z,51.90
2022-08-05T17:26:36.219Z,51.70
2022-08-05T17:29:09.855Z,51.60
2022-08-05T17:31:57.412Z,51.70
2022-08-05T17:34:30.145Z,51.40
2022-08-05T17:37:00.092Z,51.10
2022-08-05T17:39:34.193Z,51.40
2022-08-05T17:42:17.825Z,51.10
2022-08-05T17:44:50.416Z,51.30
2022-08-05T17:47:22.923Z,51.30
2022-08-05T17:49:59.875Z,51.50
2022-08-05T17:52:32.618Z,50.70
2022-08-05T17:55:00.536Z,51.20
2022-08-05T17:57:28.069Z,51.00
2022-08-05T18:00:05.360Z,50.00
2022-08-05T18:02:34.215Z,48.60
2022-08-05T18:05:06.364Z,49.80
2022-08-05T18:07:41.495Z,50.80
2022-08-05T18:10:11.290Z,50.50
2022-08-05T18:12:38.923Z,50.30
2022-08-05T18:15:06.815Z,50.10
2022-08-05T18:17:59.068Z,50.10
2022-08-05T18:20:29.415Z,49.50
2022-08-05T18:23:11.282Z,49.00
2022-08-05T18:25:42.766Z,48.70
2022-08-05T18:28:16.522Z,48.60
2022-08-05T18:30:45.446Z,48.40
2022-08-05T18:33:17.710Z,48.50
2022-08-05T18:36:04.298Z,49.30
2022-08-05T18:38:35.988Z,49.00
2022-08-05T18:41:58.404Z,49.30
2022-08-05T18:43:51.089Z,48.70
2022-08-05T18:46:19.705Z,48.90
2022-08-05T18:48:52.009Z,48.30
2022-08-05T18:52:04.883Z,49.20
2022-08-05T18:54:31.311Z,49.20
2022-08-05T18:57:02.075Z,49.20
2022-08-05T18:59:43.089Z,50.30
2022-08-05T19:02:27.917Z,48.70
2022-08-05T19:05:02.884Z,48.90
2022-08-05T19:07:47.786Z,48.30
2022-08-05T19:10:17.422Z,48.20
2022-08-05T19:12:46.175Z,47.90
2022-08-05T19:15:57.844Z,47.70
2022-08-05T19:18:09.559Z,47.50
2022-08-05T19:20:41.526Z,47.70
2022-08-05T19:24:03.558Z,46.90
2022-08-05T19:26:04.086Z,46.40
2022-08-05T19:28:32.864Z,46.20
2022-08-05T19:31:01.259Z,46.10
2022-08-05T19:33:35.567Z,45.90
2022-08-05T19:36:07.161Z,45.30
2022-08-05T19:38:36.402Z,43.10
2022-08-05T19:41:06.694Z,43.20
2022-08-05T19:44:05.888Z,43.80
2022-08-05T19:46:29.539Z,43.80
2022-08-05T19:49:07.876Z,43.60
2022-08-05T19:52:04.525Z,43.40
2022-08-05T19:54:31.074Z,43.80
2022-08-05T19:57:08.705Z,43.60
2022-08-05T20:00:00.265Z,44.00
2022-08-05T20:02:26.989Z,43.80
2022-08-05T20:04:58.438Z,44.20
2022-08-05T20:07:47.386Z,44.90
2022-08-05T20:10:14.659Z,44.30
2022-08-05T20:12:48.357Z,43.70
2022-08-05T20:15:48.288Z,44.40
2022-08-05T20:18:10.470Z,43.90
2022-08-05T20:20:56.728Z,43.40
2022-08-05T20:23:39.987Z,44.40
2022-08-05T20:26:15.333Z,44.30
2022-08-05T20:28:44.825Z,45.10
2022-08-05T20:31:11.994Z,45.20
2022-08-05T20:33:42.429Z,45.00
2022-08-05T20:36:10.083Z,44.90
2022-08-05T20:38:40.907Z,45.70
2022-08-05T20:41:24.235Z,44.80
2022-08-05T20:43:59.774Z,44.80
2022-08-05T20:46:28.605Z,44.60
2022-08-05T20:48:55.537Z,44.40
2022-08-05T20:51:22.626Z,44.70
2022-08-05T20:53:56.380Z,44.30
2022-08-05T20:56:31.873Z,44.30
2022-08-05T20:59:11.251Z,44.70
2022-08-05T21:01:47.059Z,44.50
2022-08-05T21:04:14.194Z,45.10
2022-08-05T21:06:45.385Z,44.30
2022-08-05T21:09:15.048Z,44.30
2022-08-05T21:12:10.833Z,44.40
2022-08-05T21:14:35.205Z,44.10
2022-08-05T21:17:05.507Z,44.40
2022-08-05T21:19:47.400Z,44.30
2022-08-05T21:22:18.543Z,44.10
2022-08-05T21:24:51.866Z,45.00
2022-08-05T21:27:25.431Z,44.60
2022-08-05T21:29:57.488Z,44.50
2022-08-05T21:32:26.935Z,44.50
2022-08-05T21:35:18.126Z,44.70
2022-08-05T21:37:47.004Z,44.90
2022-08-05T21:40:19.976Z,45.10
2022-08-05T21:42:47.416Z,45.40
2022-08-05T21:45:24.864Z,45.70
2022-08-05T21:48:06.431Z,45.90
2022-08-05T21:50:34.991Z,45.90
2022-08-05T21:53:16.718Z,45.80
2022-08-05T21:56:06.191Z,46.00
2022-08-05T21:58:32.570Z,46.10
2022-08-05T22:01:00.400Z,46.10
2022-08-05T22:03:52.185Z,46.20
2022-08-05T22:06:16.271Z,46.40
2022-08-05T22:08:52.024Z,46.50
2022-08-05T22:11:35.266Z,46.70
2022-08-05T22:14:34.553Z,46.90
2022-08-05T22:16:57.915Z,47.00
2022-08-05T22:19:57.476Z,47.00
2022-08-05T22:22:15.560Z,47.20
2022-08-05T22:25:01.638Z,48.10
2022-08-05T22:28:09.000Z,47.50
2022-08-05T22:30:32.269Z,47.50
2022-08-05T22:33:02.575Z,47.80
2022-08-05T22:35:38.624Z,47.70
2022-08-05T22:38:15.273Z,48.00
2022-08-05T22:40:42.209Z,47.80
2022-08-05T22:43:37.504Z,48.10
2022-08-05T22:46:12.240Z,48.30
2022-08-05T22:48:41.790Z,48.30
2022-08-05T22:51:16.077Z,48.50
2022-08-05T22:53:51.037Z,48.40
2022-08-05T22:56:30.558Z,48.50
2022-08-05T22:59:03.250Z,48.70
2022-08-05T23:02:05.263Z,48.70
2022-08-05T23:04:35.402Z,48.70
2022-08-05T23:07:02.914Z,48.80
2022-08-05T23:09:58.400Z,48.80
2022-08-05T23:12:18.072Z,48.90
2022-08-05T23:14:45.262Z,49.00
2022-08-05T23:17:34.568Z,49.10
2022-08-05T23:20:17.637Z,49.10
2022-08-05T23:22:48.319Z,49.20
2022-08-05T23:25:52.004Z,49.50
2022-08-05T23:28:06.967Z,49.40
2022-08-05T23:30:40.017Z,49.80
2022-08-05T23:33:16.270Z,49.60
2022-08-05T23:35:50.444Z,49.90
2022-08-05T23:38:18.083Z,49.80
2022-08-05T23:40:49.410Z,49.90
2022-08-05T23:43:25.335Z,49.90
2022-08-05T23:46:20.130Z,50.00
2022-08-05T23:49:00.389Z,50.00
2022-08-05T23:51:54.218Z,50.20
2022-08-05T23:54:26.331Z,50.30
2022-08-05T23:57:04.201Z,50.20
2022-08-05T23:59:59.593Z,50.40
